createdAt,value
2023-04-03T00:02:50.574Z,6.05
2023-04-03T00:05:53.295Z,7.03
2023-04-03T00:08:55.474Z,5.68
2023-04-03T00:11:57.984Z,6.62
2023-04-03T00:15:00.150Z,6.55
2023-04-03T00:18:03.205Z,7.50
2023-04-03T00:21:06.612Z,6.65
2023-04-03T00:24:09.043Z,6.65
2023-04-03T00:27:13.040Z,5.70
2023-04-03T00:30:17.417Z,6.18
2023-04-03T00:33:22.823Z,6.05
2023-04-03T00:36:25.545Z,6.85
2023-04-03T00:39:27.842Z,6.05
2023-04-03T00:42:30.755Z,6.55
2023-04-03T00:45:38.940Z,6.78
2023-04-03T00:48:49.176Z,5.90
2023-04-03T00:51:51.988Z,6.12
2023-04-03T00:54:57.888Z,5.57
2023-04-03T00:58:01.680Z,5.82
2023-04-03T01:01:08.802Z,6.60
2023-04-03T01:04:29.332Z,6.47
2023-04-03T01:07:34.393Z,5.65
2023-04-03T01:10:36.726Z,5.60
2023-04-03T01:13:39.305Z,5.78
2023-04-03T01:16:41.723Z,6.30
2023-04-03T01:19:55.961Z,5.50
2023-04-03T01:23:10.535Z,6.37
2023-04-03T01:26:13.449Z,5.75
2023-04-03T01:29:16.066Z,5.50
2023-04-03T01:32:18.538Z,5.37
2023-04-03T01:35:20.948Z,6.12
2023-04-03T01:38:23.838Z,6.35
2023-04-03T01:41:26.622Z,6.32
2023-04-03T01:44:29.679Z,6.22
2023-04-03T01:47:32.055Z,5.85
2023-04-03T01:50:35.162Z,5.75
2023-04-03T01:53:37.629Z,5.97
2023-04-03T01:56:40.157Z,6.12
2023-04-03T01:59:43.658Z,5.55
2023-04-03T02:02:46.330Z,6.32
2023-04-03T02:05:50.327Z,4.87
2023-04-03T02:08:52.449Z,5.03
2023-04-03T02:11:54.937Z,4.90
2023-04-03T02:14:57.210Z,5.03
2023-04-03T02:17:59.680Z,4.40
2023-04-03T02:21:02.284Z,4.50
2023-04-03T02:24:04.935Z,5.40
2023-04-03T02:27:07.315Z,5.43
2023-04-03T02:30:11.637Z,4.87
2023-04-03T02:33:13.857Z,6.05
2023-04-03T02:36:16.754Z,4.65
2023-04-03T02:39:19.647Z,4.55
2023-04-03T02:42:22.533Z,4.70
2023-04-03T02:45:24.698Z,4.62
2023-04-03T02:48:27.589Z,4.20
2023-04-03T02:51:29.858Z,5.57
2023-04-03T02:54:32.402Z,5.12
2023-04-03T02:57:35.188Z,4.55
2023-04-03T03:00:38.607Z,5.80
2023-04-03T03:03:40.962Z,4.47
2023-04-03T03:06:44.821Z,4.50
2023-04-03T03:09:47.228Z,4.37
2023-04-03T03:12:50.014Z,4.43
2023-04-03T03:15:52.556Z,4.22
2023-04-03T03:18:55.650Z,4.87
2023-04-03T03:21:58.896Z,4.37
2023-04-03T03:25:02.020Z,4.93
2023-04-03T03:28:04.193Z,4.30
2023-04-03T03:31:07.977Z,4.35
2023-04-03T03:34:10.972Z,4.28
2023-04-03T03:37:14.171Z,5.82
2023-04-03T03:40:16.716Z,4.62
2023-04-03T03:43:21.275Z,5.15
2023-04-03T03:46:23.884Z,6.68
2023-04-03T03:49:28.593Z,4.25
2023-04-03T03:52:31.252Z,4.82
2023-04-03T03:55:33.665Z,4.93
2023-04-03T03:58:35.906Z,4.57
2023-04-03T04:01:38.537Z,6.10
2023-04-03T04:04:41.310Z,4.82
2023-04-03T04:07:43.560Z,4.45
2023-04-03T04:10:46.898Z,6.53
2023-04-03T04:13:49.197Z,4.90
2023-04-03T04:16:52.579Z,5.68
2023-04-03T04:19:55.380Z,4.75
2023-04-03T04:22:57.979Z,4.68
2023-04-03T04:26:00.673Z,6.05
2023-04-03T04:29:03.634Z,4.72
2023-04-03T04:32:09.717Z,4.97
2023-04-03T04:35:14.012Z,4.45
2023-04-03T04:38:17.909Z,4.80
2023-04-03T04:41:23.336Z,5.07
2023-04-03T04:44:25.811Z,4.72
2023-04-03T04:47:30.652Z,4.78
2023-04-03T04:50:33.198Z,5.97
2023-04-03T04:53:35.862Z,4.68
2023-04-03T04:56:38.305Z,5.37
2023-04-03T04:59:40.884Z,6.03
2023-04-03T05:02:43.224Z,5.00
2023-04-03T05:05:46.328Z,4.82
2023-04-03T05:08:49.224Z,5.22
2023-04-03T05:11:52.536Z,5.62
2023-04-03T05:14:55.650Z,4.65
2023-04-03T05:17:58.403Z,5.45
2023-04-03T05:21:00.718Z,5.40
2023-04-03T05:24:04.039Z,4.82
2023-04-03T05:27:07.650Z,5.20
2023-04-03T05:30:10.992Z,5.25
2023-04-03T05:33:15.040Z,4.32
2023-04-03T05:36:19.730Z,4.30
2023-04-03T05:39:23.923Z,4.60
2023-04-03T05:42:26.963Z,5.18
2023-04-03T05:45:29.411Z,4.70
2023-04-03T05:48:33.319Z,4.87
2023-04-03T05:51:37.434Z,4.75
2023-04-03T05:54:40.596Z,4.75
2023-04-03T05:57:43.475Z,5.20
2023-04-03T06:00:46.600Z,4.65
2023-04-03T06:03:49.611Z,4.40
2023-04-03T06:06:56.790Z,3.97
2023-04-03T06:10:02.392Z,6.95
2023-04-03T06:13:05.322Z,3.92
2023-04-03T06:16:07.797Z,5.60
2023-04-03T06:19:11.984Z,5.20
2023-04-03T06:22:15.944Z,3.92
2023-04-03T06:25:19.931Z,3.95
2023-04-03T06:28:23.819Z,4.57
2023-04-03T06:31:26.371Z,5.55
2023-04-03T06:34:32.039Z,5.30
2023-04-03T06:37:34.335Z,4.85
2023-04-03T06:40:37.517Z,5.45
2023-04-03T06:43:39.870Z,4.43
2023-04-03T06:46:44.179Z,4.18
2023-04-03T06:49:46.520Z,4.07
2023-04-03T06:52:48.961Z,3.85
2023-04-03T06:55:51.477Z,4.10
2023-04-03T06:58:58.585Z,5.50
2023-04-03T07:02:01.909Z,4.95
2023-04-03T07:05:05.075Z,4.85
2023-04-03T07:08:07.364Z,3.67
2023-04-03T07:11:11.493Z,6.40
2023-04-03T07:14:13.790Z,3.97
2023-04-03T07:17:16.550Z,4.03
2023-04-03T07:20:21.387Z,4.20
2023-04-03T07:23:24.867Z,3.60
2023-04-03T07:26:27.715Z,3.17
2023-04-03T07:29:31.500Z,3.03
2023-04-03T07:32:33.991Z,3.47
2023-04-03T07:35:43.843Z,3.05
2023-04-03T07:38:46.471Z,6.00
2023-04-03T07:41:48.985Z,2.80
2023-04-03T07:44:52.503Z,3.85
2023-04-03T07:47:55.167Z,2.95
2023-04-03T07:51:01.889Z,3.58
2023-04-03T07:54:05.120Z,6.87
2023-04-03T07:57:07.837Z,3.50
2023-04-03T08:00:13.095Z,4.75
2023-04-03T08:03:17.802Z,3.20
2023-04-03T08:06:29.411Z,2.78
2023-04-03T08:09:36.600Z,3.47
2023-04-03T08:12:38.799Z,3.35
2023-04-03T08:15:42.052Z,2.92
2023-04-03T08:18:44.716Z,2.80
2023-04-03T08:21:47.870Z,2.85
2023-04-03T08:24:58.423Z,3.58
2023-04-03T08:28:03.041Z,3.55
2023-04-03T08:31:07.840Z,3.65
2023-04-03T08:34:10.712Z,2.72
2023-04-03T08:37:12.968Z,2.40
2023-04-03T08:40:17.824Z,2.78
2023-04-03T08:43:49.565Z,2.78
2023-04-03T08:47:05.531Z,5.82
2023-04-03T08:50:18.371Z,2.72
2023-04-03T08:53:29.609Z,2.45
2023-04-03T08:56:35.753Z,3.00
2023-04-03T08:59:44.373Z,2.40
2023-04-03T09:02:50.479Z,3.22
2023-04-03T09:06:21.767Z,2.17
2023-04-03T09:09:24.122Z,2.45
2023-04-03T09:12:37.470Z,1.85
2023-04-03T09:15:40.957Z,2.00
2023-04-03T09:18:50.030Z,1.65
2023-04-03T09:21:53.007Z,3.40
2023-04-03T09:25:23.049Z,1.48
2023-04-03T09:28:25.864Z,1.60
2023-04-03T09:31:37.352Z,1.50
2023-04-03T09:34:42.828Z,2.10
2023-04-03T09:37:48.318Z,7.12
2023-04-03T09:41:21.281Z,1.70
2023-04-03T09:44:27.541Z,1.83
2023-04-03T09:47:36.245Z,1.85
2023-04-03T09:50:40.048Z,1.92
2023-04-03T09:53:44.733Z,3.40
2023-04-03T09:56:52.177Z,1.92
2023-04-03T10:00:00.785Z,2.00
2023-04-03T10:03:04.783Z,1.60
2023-04-03T10:06:24.829Z,2.20
2023-04-03T10:09:34.214Z,2.00
2023-04-03T10:12:36.744Z,2.17
2023-04-03T10:15:47.683Z,1.83
2023-04-03T10:18:59.845Z,2.30
2023-04-03T10:22:26.172Z,1.87
2023-04-03T10:25:47.497Z,1.80
2023-04-03T10:32:22.435Z,3.15
2023-04-03T10:35:42.611Z,2.62
2023-04-03T10:39:16.926Z,1.60
2023-04-03T10:42:35.590Z,1.80
2023-04-03T10:45:47.033Z,2.47
2023-04-03T10:49:34.138Z,3.87
2023-04-03T10:53:03.868Z,1.50
2023-04-03T10:56:28.123Z,1.58
2023-04-03T10:59:38.168Z,2.28
2023-04-03T11:02:52.101Z,2.60
2023-04-03T11:05:56.817Z,1.60
2023-04-03T11:09:04.715Z,6.82
2023-04-03T11:12:17.045Z,1.25
2023-04-03T11:15:23.966Z,1.60
2023-04-03T11:18:36.403Z,1.42
2023-04-03T11:21:46.603Z,1.87
2023-04-03T11:25:00.174Z,3.05
2023-04-03T11:28:06.697Z,1.90
2023-04-03T11:31:18.618Z,1.67
2023-04-03T11:34:35.369Z,5.57
2023-04-03T11:37:51.212Z,1.50
2023-04-03T11:40:56.262Z,4.15
2023-04-03T11:44:25.976Z,1.35
2023-04-03T11:47:50.689Z,1.40
2023-04-03T11:50:53.941Z,1.33
2023-04-03T11:54:38.650Z,1.87
2023-04-03T11:57:58.930Z,3.42
2023-04-03T12:01:06.021Z,2.08
2023-04-03T12:04:11.717Z,3.83
2023-04-03T12:07:19.278Z,1.40
2023-04-03T12:10:31.817Z,1.40
2023-04-03T12:13:36.246Z,2.35
2023-04-03T12:16:38.719Z,1.37
2023-04-03T12:19:45.917Z,1.55
2023-04-03T12:23:26.083Z,1.23
2023-04-03T12:26:45.549Z,1.33
2023-04-03T12:29:55.340Z,2.28
2023-04-03T12:33:12.504Z,3.12
2023-04-03T12:36:44.865Z,1.55
2023-04-03T12:40:02.211Z,1.40
2023-04-03T12:43:18.427Z,2.80
2023-04-03T12:46:22.873Z,1.30
2023-04-03T12:49:32.211Z,1.05
2023-04-03T12:52:51.066Z,1.27
2023-04-03T12:55:58.959Z,3.10
2023-04-03T12:59:25.282Z,2.95
2023-04-03T13:02:30.970Z,1.30
2023-04-03T13:05:36.675Z,2.35
2023-04-03T13:08:50.085Z,1.42
2023-04-03T13:11:56.495Z,2.70
2023-04-03T13:15:02.309Z,1.40
2023-04-03T13:18:04.518Z,1.17
2023-04-03T13:21:14.658Z,1.33
2023-04-03T13:24:16.948Z,1.17
2023-04-03T13:27:20.067Z,1.08
2023-04-03T13:30:33.460Z,1.45
2023-04-03T13:33:40.828Z,1.83
2023-04-03T13:36:47.583Z,2.45
2023-04-03T13:40:04.130Z,1.30
2023-04-03T13:43:19.174Z,0.88
2023-04-03T13:46:29.159Z,3.92
2023-04-03T13:49:31.232Z,1.55
2023-04-03T13:52:41.835Z,1.30
2023-04-03T13:56:07.535Z,1.20
2023-04-03T13:59:13.056Z,3.20
2023-04-03T14:02:30.502Z,1.50
2023-04-03T14:05:33.042Z,2.42
2023-04-03T14:08:42.821Z,6.28
2023-04-03T14:11:48.276Z,1.45
2023-04-03T14:14:50.638Z,1.45
2023-04-03T14:17:54.141Z,2.03
2023-04-03T14:20:56.345Z,1.37
2023-04-03T14:23:58.812Z,1.50
2023-04-03T14:27:01.306Z,3.22
2023-04-03T14:30:07.906Z,2.65
2023-04-03T14:33:14.924Z,2.60
2023-04-03T14:36:27.081Z,1.42
2023-04-03T14:39:29.777Z,4.62
2023-04-03T14:42:35.888Z,2.15
2023-04-03T14:45:38.078Z,1.50
2023-04-03T14:48:40.932Z,1.45
2023-04-03T14:51:43.119Z,1.37
2023-04-03T14:54:45.632Z,3.85
2023-04-03T14:57:49.442Z,1.42
2023-04-03T15:00:51.862Z,2.00
2023-04-03T15:03:54.196Z,2.12
2023-04-03T15:06:56.639Z,1.67
2023-04-03T15:10:17.743Z,2.50
2023-04-03T15:13:21.455Z,3.12
2023-04-03T15:29:26.628Z,3.50
2023-04-03T15:32:31.342Z,2.90
2023-04-03T15:35:34.768Z,2.80
2023-04-03T15:38:39.111Z,3.85
2023-04-03T15:41:41.853Z,2.92
2023-04-03T15:44:44.237Z,2.22
2023-04-03T15:47:46.549Z,2.78
2023-04-03T15:50:48.990Z,3.37
2023-04-03T15:53:51.241Z,3.03
2023-04-03T15:56:54.239Z,3.10
2023-04-03T15:59:57.425Z,3.83
2023-04-03T16:03:05.886Z,3.40
2023-04-03T16:06:08.411Z,5.80
2023-04-03T16:09:11.647Z,4.30
2023-04-03T16:12:14.065Z,4.18
2023-04-03T16:15:16.327Z,2.72
2023-04-03T16:18:19.507Z,2.95
2023-04-03T16:21:22.326Z,5.37
2023-04-03T16:24:24.922Z,2.70
2023-04-03T16:27:28.615Z,7.93
2023-04-03T16:30:31.163Z,4.10
2023-04-03T16:33:33.671Z,3.90
2023-04-03T16:36:36.390Z,4.43
2023-04-03T16:39:38.611Z,2.90
2023-04-03T16:42:41.194Z,3.05
2023-04-03T16:45:43.387Z,4.07
2023-04-03T16:48:45.838Z,3.85
2023-04-03T16:51:49.749Z,4.90
2023-04-03T16:54:56.297Z,3.22
2023-04-03T16:57:58.481Z,3.45
2023-04-03T17:01:16.294Z,2.75
2023-04-03T17:04:18.604Z,2.22
2023-04-03T17:07:22.286Z,3.58
2023-04-03T17:10:24.963Z,3.37
2023-04-03T17:13:32.191Z,3.35
2023-04-03T17:16:37.358Z,2.03
2023-04-03T17:19:41.000Z,2.72
2023-04-03T17:22:43.367Z,2.35
2023-04-03T17:25:45.799Z,2.72
2023-04-03T17:28:47.948Z,2.72
2023-04-03T17:31:50.616Z,4.37
2023-04-03T17:34:52.771Z,2.55
2023-04-03T17:37:55.323Z,2.33
2023-04-03T17:40:58.988Z,2.08
2023-04-03T17:44:01.643Z,2.35
2023-04-03T17:47:04.179Z,2.00
2023-04-03T17:50:07.186Z,2.35
2023-04-03T17:53:09.538Z,2.28
2023-04-03T17:56:15.657Z,2.17
2023-04-03T17:59:18.391Z,2.60
2023-04-03T18:02:21.163Z,2.58
2023-04-03T18:05:28.266Z,2.97
2023-04-03T18:08:37.683Z,2.37
2023-04-03T18:11:40.232Z,2.58
2023-04-03T18:14:42.448Z,2.90
2023-04-03T18:17:46.351Z,3.97
2023-04-03T18:20:48.858Z,3.05
2023-04-03T18:23:54.502Z,2.33
2023-04-03T18:27:12.864Z,2.25
2023-04-03T18:30:17.651Z,2.37
2023-04-03T18:33:19.807Z,2.78
2023-04-03T18:36:22.248Z,2.40
2023-04-03T18:39:25.014Z,2.85
2023-04-03T18:42:29.397Z,3.17
2023-04-03T18:45:31.539Z,3.10
2023-04-03T18:48:35.356Z,3.25
2023-04-03T18:51:40.718Z,2.28
2023-04-03T18:54:43.358Z,4.45
2023-04-03T18:57:46.670Z,2.22
2023-04-03T19:00:49.118Z,2.45
2023-04-03T19:03:51.392Z,2.42
2023-04-03T19:06:53.884Z,3.42
2023-04-03T19:09:56.303Z,5.75
2023-04-03T19:12:58.767Z,3.05
2023-04-03T19:16:00.922Z,2.83
2023-04-03T19:19:03.664Z,2.47
2023-04-03T19:22:07.663Z,3.10
2023-04-03T19:25:11.768Z,3.12
2023-04-03T19:28:14.854Z,4.00
2023-04-03T19:31:20.905Z,2.75
2023-04-03T19:34:23.219Z,3.47
2023-04-03T19:37:26.970Z,3.35
2023-04-03T19:40:29.633Z,4.62
2023-04-03T19:43:32.233Z,2.42
2023-04-03T19:46:35.586Z,3.20
2023-04-03T19:49:38.539Z,2.78
2023-04-03T19:52:40.672Z,2.97
2023-04-03T19:55:46.178Z,4.18
2023-04-03T19:58:53.747Z,3.67
2023-04-03T20:01:57.483Z,3.62
2023-04-03T20:05:00.039Z,3.83
2023-04-03T20:08:02.184Z,3.85
2023-04-03T20:11:05.782Z,3.83
2023-04-03T20:14:08.123Z,3.03
2023-04-03T20:17:11.210Z,4.03
2023-04-03T20:20:13.582Z,4.87
2023-04-03T20:23:16.012Z,5.68
2023-04-03T20:26:26.981Z,3.92
2023-04-03T20:29:29.550Z,4.87
2023-04-03T20:32:31.932Z,3.55
2023-04-03T20:35:34.841Z,3.70
2023-04-03T20:38:36.978Z,2.67
2023-04-03T20:41:39.792Z,3.85
2023-04-03T20:44:46.053Z,5.03
2023-04-03T20:47:49.501Z,5.72
2023-04-03T20:50:51.916Z,4.20
2023-04-03T20:53:55.180Z,3.20
2023-04-03T20:56:57.390Z,3.25
2023-04-03T20:59:59.788Z,3.22
2023-04-03T21:03:02.011Z,3.08
2023-04-03T21:06:42.502Z,4.60
2023-04-03T21:10:22.459Z,3.35
2023-04-03T21:14:03.926Z,3.03
2023-04-03T21:17:05.999Z,3.87
2023-04-03T21:20:08.560Z,2.65
2023-04-03T21:23:10.762Z,5.10
2023-04-03T21:26:13.404Z,4.10
2023-04-03T21:29:15.720Z,4.12
2023-04-03T21:32:18.183Z,3.75
2023-04-03T21:35:20.309Z,4.35
2023-04-03T21:38:22.887Z,3.47
2023-04-03T21:41:26.639Z,4.57
2023-04-03T21:44:29.806Z,5.93
2023-04-03T21:47:31.983Z,3.45
2023-04-03T21:50:34.602Z,4.30
2023-04-03T21:53:37.217Z,3.00
2023-04-03T21:56:39.686Z,4.70
2023-04-03T21:59:42.417Z,5.78
2023-04-03T22:02:45.004Z,3.58
2023-04-03T22:05:47.501Z,3.72
2023-04-03T22:08:49.727Z,3.85
2023-04-03T22:11:52.376Z,4.32
2023-04-03T22:14:54.579Z,3.12
2023-04-03T22:17:57.065Z,4.25
2023-04-03T22:20:59.757Z,4.40
2023-04-03T22:24:02.229Z,4.40
2023-04-03T22:27:04.387Z,3.08
2023-04-03T22:30:07.684Z,2.90
2023-04-03T22:33:09.950Z,4.70
2023-04-03T22:36:13.924Z,3.67
2023-04-03T22:39:16.418Z,3.05
2023-04-03T22:42:18.881Z,5.20
2023-04-03T22:45:21.712Z,3.25
2023-04-03T22:48:24.603Z,4.32
2023-04-03T22:51:26.734Z,3.55
2023-04-03T22:54:29.103Z,5.22
2023-04-03T22:57:31.352Z,3.80
2023-04-03T23:00:33.865Z,4.22
2023-04-03T23:03:37.199Z,3.70
2023-04-03T23:06:39.715Z,3.55
2023-04-03T23:09:42.112Z,4.30
2023-04-03T23:12:44.589Z,3.80
2023-04-03T23:16:02.453Z,5.03
2023-04-03T23:19:04.850Z,2.62
2023-04-03T23:22:08.092Z,4.90
2023-04-03T23:25:10.848Z,2.75
2023-04-03T23:28:13.011Z,2.95
2023-04-03T23:31:15.505Z,2.40
2023-04-03T23:34:17.693Z,4.40
2023-04-03T23:37:20.106Z,2.65
2023-04-03T23:40:22.235Z,3.47
2023-04-03T23:43:24.944Z,3.87
2023-04-03T23:46:27.119Z,3.55
2023-04-03T23:49:29.603Z,3.12
2023-04-03T23:52:31.780Z,4.20
2023-04-03T23:55:34.224Z,4.80
2023-04-03T23:58:36.353Z,5.82
